Logan Cache Airport
KLGU : now visible

Aeroporto :











RITROVATECI SU...

 
LOGIN :

Iscrizione | Disclaimer

   EN    FR    IT 

 









Sommario :    VFR   VFR Marginale   IFR   IFR Intensivo   IFR Molto Intensivo
Visibilità : 
Base nubi : 
>= 8 km
>= 3000ft
5 / 8 km
1000 / 3000 ft
1500m / 5 km
500 / 1000 ft
800 / 1500m
200 / 500 ft
< 800m
< 200 ft
Simboli :   Temporali  Nebbia  Neve Forte  Precipitazioni Forti  Vento > 20 kt






- Altitudine del aeroporto : 4457 ft


KLGU - Logan Cache

ULTIMO METAR :
  • 200951Z AUTO 02003KT 10SM CLR M11/M15 A3048 RMK AO2 SLP369 I1000 T11111150

METARs OBSOLETI :
  • 200851Z AUTO 31003KT 9SM CLR M12/M15 A3048 RMK AO2 SLP373 I1000 I3000 T11171150 51002
  • 200751Z AUTO 00000KT 10SM CLR M10/M14 A3048 RMK AO2 SLP370 I1000 T11001144

TAF KLGU
Valido dal 20 a 06 ore il 21 a 06 ore UTC


200534Z 2006/2106 VRB03KT 6SM BR BCFG FEW001
FM201600 00000KT P6SM SKC



MetMap, La meteo Aeronautica in un colpo d'occhio ! - Copyright ORBIFLY Dicembre 2007 - Disclaimer

ORBIFLY MET'MAP TEAM :

Programmazione e sviluppo : Alexandra Zaïnal
Concezione : Baudouin d'Aumeries
Aiuto per la programmazione : Marc-Olivier Méhu
Supporto tecnico e logistico : Manuel Goepfert
Aiuto per la traduzione : Arnaldo La Scala

Contatto : metmap@orbifly.com




FONTI E CREDITI :

   NOAA       Earth
Advisory